Airfield :
LOGIN :

Register | Disclaimer

   EN    FR    IT 

 










Legend :    VFR   Marginal VFR   IFR   Intensive IFR   Very Intensive IFR
Visi :
Ceiling :
>= 8 km
>= 3000ft
5 to 8 km
1000 to 3000 ft
1500m to 5 km
500 to 1000 ft
800 to 1500m
200 to 500 ft
< 800m
< 200 ft
Symbols :   Thunderstorms  Fog  Heavy snow  Heavy precipitations  Wind > 20 kt
SIGMETs :     Misc.  Thunderstorms  Icing  Turbulence  Mountain Waves  Volcanic Ashes






- Airport Elevation : 405 ft
- IATA code : ODH


EGVO - RAF Odiham

CURRENT METAR :
  • 242150Z AUTO 15001KT 7000 BR OVC016/// 05/05 Q1021

EXPIRED METARs :
  • 242050Z AUTO 20003KT 3900 BR OVC016/// 05/05 Q1021
  • 241950Z AUTO 27003KT 6000 BR OVC016/// 06/05 Q1021
  • 241850Z AUTO 18003KT 6000 BR OVC015/// 05/05 Q1021

TAF TAF EGVO
Valid from the 24 at 15:00 until the 25 at 03:00 UTC


241322Z 2415/2503 15003KT 9999 BKN020
PROB30
TEMPO 2415/2503 BKN014



MET'MAP, your aeronautical weather chart ! - Copyright ORBIFLY December 2007 - Disclaimer

ORBIFLY MET'MAP TEAM :

Programming & Development : Alexandra Zaïnal
Concept & original design : Baudouin d'Aumeries
Assistance for programming : Marc-Olivier Méhu
Technical & hardware support : Manuel Goepfert

Contact : metmap@orbifly.com




SOURCES & CREDITS :

   NOAA